Time;durP1;ratioP1;P1;durP2;ratioP2;P2;SDS_P1;SDS_P2;PMS_P1;PMS_P2;Temp;Humidity;BMP_temperature;BMP_pressure;BME280_temperature;BME280_humidity;BME280_pressure;Samples;Min_cycle;Max_cycle;Signal;HPM_P1;HPM_P2
2023/07/02 00:00:47;;;;;;;20.50;16.70;;;;;;;17.82;81.84;99298.66;103876;277;38297;-71
2023/07/02 00:03:43;;;;;;;21.20;15.80;;;;;;;17.80;81.87;99299.35;103869;277;38727;-71
2023/07/02 00:06:18;;;;;;;21.90;16.30;;;;;;;17.77;81.91;99295.89;103903;277;39688;-73
2023/07/02 00:08:52;;;;;;;21.20;17.90;;;;;;;17.77;82.10;99296.80;103902;277;38451;-73
2023/07/02 00:11:26;;;;;;;21.50;17.80;;;;;;;17.78;82.32;99297.42;104039;277;39701;-72
2023/07/02 00:14:03;;;;;;;23.90;16.90;;;;;;;17.78;82.41;99295.26;103950;277;38213;-73
2023/07/02 00:16:44;;;;;;;22.80;17.60;;;;;;;17.78;82.59;99289.98;103949;277;38280;-73
2023/07/02 00:19:19;;;;;;;21.00;17.10;;;;;;;17.79;82.69;99289.40;103960;278;38855;-73
2023/07/02 00:21:54;;;;;;;24.80;18.00;;;;;;;17.79;82.72;99287.79;103870;277;38624;-72
2023/07/02 00:24:29;;;;;;;24.90;18.30;;;;;;;17.79;82.84;99290.10;103899;277;38269;-74
2023/07/02 00:27:03;;;;;;;24.70;18.30;;;;;;;17.79;82.99;99289.18;103822;277;38317;-73
2023/07/02 00:29:37;;;;;;;21.90;17.80;;;;;;;17.80;82.99;99290.58;103884;277;38473;-72
2023/07/02 00:32:11;;;;;;;21.00;17.10;;;;;;;17.79;82.86;99291.19;103840;274;38355;-73
2023/07/02 00:34:46;;;;;;;19.90;17.20;;;;;;;17.78;83.00;99287.36;103905;277;38544;-71
2023/07/02 00:37:20;;;;;;;23.40;18.60;;;;;;;17.77;83.13;99289.26;103800;277;39248;-73
2023/07/02 00:39:54;;;;;;;20.50;17.10;;;;;;;17.76;83.18;99292.83;103886;277;38693;-74
2023/07/02 00:42:29;;;;;;;21.50;17.30;;;;;;;17.76;82.98;99292.84;103859;277;39464;-73
2023/07/02 00:45:06;;;;;;;23.50;17.80;;;;;;;17.73;83.11;99289.50;103948;277;38387;-72
2023/07/02 00:47:40;;;;;;;23.10;18.20;;;;;;;17.71;82.94;99288.30;103906;277;38283;-72
2023/07/02 00:50:15;;;;;;;25.70;19.00;;;;;;;17.70;83.18;99287.81;103896;277;38243;-73
2023/07/02 00:52:53;;;;;;;25.00;18.20;;;;;;;17.67;83.18;99286.32;103875;277;39180;-73
2023/07/02 00:55:27;;;;;;;23.30;18.80;;;;;;;17.64;83.18;99284.52;103799;277;174547;-72
2023/07/02 00:58:02;;;;;;;23.30;18.20;;;;;;;17.61;83.24;99279.77;103873;277;38269;-72
2023/07/02 01:00:36;;;;;;;21.20;16.80;;;;;;;17.59;83.15;99273.23;103888;277;38317;-72
2023/07/02 01:03:10;;;;;;;23.40;18.70;;;;;;;17.55;83.14;99273.95;103852;278;39658;-72
2023/07/02 01:05:44;;;;;;;24.20;18.10;;;;;;;17.50;83.28;99270.45;103855;277;38391;-73
2023/07/02 01:08:18;;;;;;;23.60;18.70;;;;;;;17.47;83.26;99277.45;103785;277;39462;-74
2023/07/02 01:10:52;;;;;;;22.40;17.50;;;;;;;17.44;83.50;99278.87;103804;277;39674;-72
2023/07/02 01:13:26;;;;;;;21.10;18.20;;;;;;;17.43;83.60;99274.98;103841;277;39641;-74
2023/07/02 01:16:00;;;;;;;21.90;18.20;;;;;;;17.42;83.60;99279.27;103876;277;39412;-73
2023/07/02 01:18:38;;;;;;;25.60;18.50;;;;;;;17.41;83.74;99279.35;103851;277;39669;-73
2023/07/02 01:21:12;;;;;;;21.80;17.20;;;;;;;17.39;83.81;99271.73;103857;277;39194;-72
2023/07/02 01:23:45;;;;;;;22.20;17.40;;;;;;;17.38;83.88;99270.42;103839;277;38303;-73
2023/07/02 01:26:19;;;;;;;24.10;18.10;;;;;;;17.40;84.00;99269.77;103848;277;39326;-72
2023/07/02 01:28:54;;;;;;;23.40;18.10;;;;;;;17.37;83.93;99267.38;103727;279;38280;-72
2023/07/02 01:31:28;;;;;;;22.30;17.10;;;;;;;17.35;84.11;99271.95;103788;277;38368;-73
2023/07/02 01:34:04;;;;;;;22.10;17.70;;;;;;;17.35;84.38;99266.42;103874;277;39547;-74
2023/07/02 01:36:39;;;;;;;22.10;17.50;;;;;;;17.35;84.57;99259.92;103837;277;38255;-72
2023/07/02 01:39:13;;;;;;;25.00;19.00;;;;;;;17.40;84.96;99258.44;103926;277;39446;-73
2023/07/02 01:41:53;;;;;;;23.80;18.90;;;;;;;17.46;85.07;99255.50;103885;277;39523;-73
2023/07/02 01:44:27;;;;;;;23.90;18.80;;;;;;;17.49;85.06;99255.39;103922;277;38271;-74
2023/07/02 01:47:01;;;;;;;25.30;18.30;;;;;;;17.53;85.10;99251.36;103832;277;38463;-73
2023/07/02 01:49:36;;;;;;;24.90;18.00;;;;;;;17.57;85.22;99252.10;103896;274;38487;-73
2023/07/02 01:52:10;;;;;;;22.10;17.40;;;;;;;17.61;85.22;99250.86;103831;277;38247;-73
2023/07/02 01:54:45;;;;;;;22.80;18.70;;;;;;;17.65;85.27;99246.88;103854;277;39662;-72
2023/07/02 01:57:20;;;;;;;22.80;17.80;;;;;;;17.68;85.32;99245.33;103853;277;38330;-72
2023/07/02 01:59:53;;;;;;;22.20;17.50;;;;;;;17.72;85.00;99245.18;103872;277;38427;-72
2023/07/02 02:02:27;;;;;;;22.70;18.10;;;;;;;17.76;85.05;99240.24;103821;277;39069;-72
2023/07/02 02:05:02;;;;;;;20.40;17.50;;;;;;;17.81;84.98;99242.64;103937;277;39962;-73
2023/07/02 02:07:36;;;;;;;22.30;18.30;;;;;;;17.85;84.95;99239.52;103819;277;38503;-73
2023/07/02 02:10:14;;;;;;;23.30;19.00;;;;;;;17.88;84.98;99243.46;103936;277;39648;-73
2023/07/02 02:12:48;;;;;;;20.40;17.00;;;;;;;17.89;84.67;99243.57;103895;277;38473;-74
2023/07/02 02:15:22;;;;;;;22.30;17.50;;;;;;;17.90;84.57;99244.02;103886;277;38256;-71
2023/07/02 02:17:56;;;;;;;22.70;17.60;;;;;;;17.94;84.61;99241.04;103910;277;38258;-72
2023/07/02 02:20:30;;;;;;;23.90;18.40;;;;;;;17.98;84.46;99241.73;103930;277;39635;-72
2023/07/02 02:23:04;;;;;;;24.10;18.20;;;;;;;17.99;84.43;99238.46;103912;273;38378;-72
2023/07/02 02:25:39;;;;;;;20.00;16.70;;;;;;;18.00;84.31;99238.20;103904;277;39300;-72
2023/07/02 02:28:13;;;;;;;21.40;17.00;;;;;;;18.03;84.26;99238.66;103840;267;38503;-74
2023/07/02 02:30:47;;;;;;;21.90;17.00;;;;;;;18.07;84.22;99237.08;103727;279;174999;-73
2023/07/02 02:33:22;;;;;;;19.60;16.70;;;;;;;18.07;83.85;99237.77;103835;279;40001;-73
2023/07/02 02:35:58;;;;;;;22.60;17.80;;;;;;;18.06;83.96;99235.92;103889;279;39008;-72
2023/07/02 02:38:33;;;;;;;21.90;17.30;;;;;;;18.04;83.86;99233.27;103818;279;40249;-73
2023/07/02 02:41:08;;;;;;;20.60;16.60;;;;;;;18.03;83.94;99231.73;103851;279;39494;-75
2023/07/02 02:43:45;;;;;;;19.40;15.90;;;;;;;18.08;83.90;99231.51;103778;279;39559;-75
2023/07/02 02:46:24;;;;;;;21.40;16.00;;;;;;;18.11;83.85;99229.62;103853;279;38454;-74
2023/07/02 02:48:58;;;;;;;18.20;15.70;;;;;;;18.15;83.74;99231.39;103793;279;38246;-72
2023/07/02 02:51:35;;;;;;;19.20;15.90;;;;;;;18.17;83.48;99231.56;103854;279;38392;-73
2023/07/02 02:54:12;;;;;;;22.40;17.40;;;;;;;18.19;83.60;99232.80;103853;278;38379;-73
2023/07/02 02:56:46;;;;;;;20.90;15.90;;;;;;;18.21;83.45;99228.26;103795;279;38266;-73
2023/07/02 02:59:20;;;;;;;17.90;15.80;;;;;;;18.23;83.34;99232.27;103860;278;38283;-73
2023/07/02 03:01:54;;;;;;;18.10;15.70;;;;;;;18.27;83.23;99228.36;103785;278;175095;-73
2023/07/02 03:04:28;;;;;;;18.40;16.20;;;;;;;18.31;83.18;99226.42;103884;278;38262;-74
2023/07/02 03:07:03;;;;;;;19.80;16.00;;;;;;;18.34;82.95;99225.31;103883;278;39366;-73
2023/07/02 03:09:37;;;;;;;18.90;15.90;;;;;;;18.35;82.84;99220.33;103863;278;39462;-71
2023/07/02 03:12:12;;;;;;;18.70;15.70;;;;;;;18.36;82.73;99219.63;103838;278;39671;-73
2023/07/02 03:14:47;;;;;;;16.90;15.10;;;;;;;18.39;82.71;99220.62;103787;279;38277;-72
2023/07/02 03:17:21;;;;;;;17.30;15.00;;;;;;;18.43;82.61;99219.96;103895;278;38848;-72
2023/07/02 03:19:55;;;;;;;16.90;15.00;;;;;;;18.46;82.43;99215.20;103874;278;38592;-74
2023/07/02 03:22:29;;;;;;;16.90;14.80;;;;;;;18.47;82.33;99213.02;103831;278;39470;-73
2023/07/02 03:25:03;;;;;;;20.70;15.80;;;;;;;18.50;82.21;99219.48;103848;278;38458;-73
2023/07/02 03:27:37;;;;;;;16.40;14.60;;;;;;;18.51;82.02;99220.44;103959;277;38782;-73
2023/07/02 03:30:14;;;;;;;17.70;14.80;;;;;;;18.54;81.87;99216.46;104022;277;38531;-74
2023/07/02 03:32:48;;;;;;;17.00;14.70;;;;;;;18.59;81.83;99221.55;104012;276;39569;-72
2023/07/02 03:35:22;;;;;;;17.90;14.30;;;;;;;18.61;81.78;99217.14;104007;276;39395;-73
2023/07/02 03:37:57;;;;;;;18.40;15.50;;;;;;;18.62;81.75;99218.23;104024;277;40180;-72
2023/07/02 03:40:31;;;;;;;16.90;14.50;;;;;;;18.65;81.65;99219.23;103481;276;758414;-72
2023/07/02 03:43:05;;;;;;;15.70;13.60;;;;;;;18.66;81.29;99216.62;103973;276;39321;-71
2023/07/02 03:45:40;;;;;;;16.20;13.50;;;;;;;18.68;81.29;99217.90;104034;277;38904;-73
2023/07/02 03:48:14;;;;;;;16.30;14.10;;;;;;;18.71;81.02;99218.50;103816;278;38683;-72
2023/07/02 03:50:50;;;;;;;17.50;14.40;;;;;;;18.72;80.97;99216.27;104064;276;38257;-72
2023/07/02 03:53:23;;;;;;;20.20;14.50;;;;;;;18.75;80.89;99215.84;104025;276;38856;-73
2023/07/02 03:55:58;;;;;;;17.60;13.90;;;;;;;18.76;80.65;99215.77;104096;276;38392;-73
2023/07/02 03:58:33;;;;;;;14.50;12.80;;;;;;;18.79;80.52;99216.55;104079;276;39261;-72
2023/07/02 04:01:08;;;;;;;13.60;12.10;;;;;;;18.81;80.07;99210.89;104082;276;38393;-72
2023/07/02 04:03:49;;;;;;;14.80;13.20;;;;;;;18.84;79.89;99207.63;103952;276;174611;-73
2023/07/02 04:06:23;;;;;;;16.10;13.60;;;;;;;18.88;79.79;99207.27;103738;279;40602;-73
2023/07/02 04:09:01;;;;;;;16.30;12.60;;;;;;;18.89;79.61;99208.38;103853;278;40500;-73
2023/07/02 04:11:36;;;;;;;13.70;12.00;;;;;;;18.91;79.57;99208.52;104025;277;38237;-73
2023/07/02 04:14:10;;;;;;;15.60;12.60;;;;;;;18.95;79.45;99202.37;104053;277;38270;-73
2023/07/02 04:16:46;;;;;;;15.20;12.70;;;;;;;19.00;79.54;99204.93;104012;276;38374;-72
2023/07/02 04:19:20;;;;;;;15.40;12.60;;;;;;;19.03;79.52;99204.14;104025;276;38513;-72
2023/07/02 04:21:54;;;;;;;14.20;12.30;;;;;;;19.07;79.45;99206.56;103819;277;39638;-74
2023/07/02 04:24:28;;;;;;;14.50;11.80;;;;;;;19.10;79.10;99200.98;104053;276;39961;-73
2023/07/02 04:27:02;;;;;;;13.60;11.70;;;;;;;19.14;78.82;99201.76;104027;265;38395;-72
2023/07/02 04:29:37;;;;;;;13.30;12.00;;;;;;;19.17;78.67;99209.24;103945;277;174892;-72
2023/07/02 04:32:13;;;;;;;13.30;11.90;;;;;;;19.18;78.55;99213.89;104053;276;38347;-72
2023/07/02 04:34:49;;;;;;;13.90;11.80;;;;;;;19.21;78.40;99211.50;104094;276;39426;-71
2023/07/02 04:37:23;;;;;;;13.40;11.70;;;;;;;19.23;78.33;99215.34;103991;276;38565;-72
2023/07/02 04:39:57;;;;;;;13.40;12.00;;;;;;;19.27;78.20;99218.29;104048;276;39627;-73
2023/07/02 04:42:37;;;;;;;14.90;11.40;;;;;;;19.31;77.80;99218.10;104061;276;39518;-73
2023/07/02 04:45:13;;;;;;;13.10;11.60;;;;;;;19.35;77.55;99213.92;104127;276;38277;-71
2023/07/02 04:47:47;;;;;;;13.70;11.40;;;;;;;19.39;76.88;99214.98;104047;276;38642;-71
2023/07/02 04:50:21;;;;;;;13.00;11.00;;;;;;;19.42;76.42;99219.59;104129;276;38612;-72
2023/07/02 04:52:56;;;;;;;12.60;11.10;;;;;;;19.45;75.90;99219.33;104020;276;38218;-73
2023/07/02 04:55:31;;;;;;;12.70;10.80;;;;;;;19.45;75.42;99220.91;104045;276;38403;-72
2023/07/02 04:58:05;;;;;;;12.20;10.90;;;;;;;19.45;75.34;99219.61;104020;276;38239;-74
2023/07/02 05:00:39;;;;;;;13.30;11.10;;;;;;;19.47;74.97;99216.84;104043;277;38259;-73
2023/07/02 05:03:13;;;;;;;11.70;10.50;;;;;;;19.50;74.94;99215.81;104001;276;39648;-73
2023/07/02 05:05:48;;;;;;;12.50;10.90;;;;;;;19.53;74.86;99218.61;104028;277;39994;-73
2023/07/02 05:08:22;;;;;;;11.30;9.60;;;;;;;19.55;74.62;99214.30;104027;276;38266;-74
2023/07/02 05:10:56;;;;;;;11.70;10.10;;;;;;;19.60;74.43;99218.80;104054;276;38777;-73
2023/07/02 05:13:30;;;;;;;11.40;10.20;;;;;;;19.65;73.93;99217.80;104041;276;39411;-72
2023/07/02 05:16:04;;;;;;;12.10;10.40;;;;;;;19.71;73.82;99217.51;104085;277;39977;-74
2023/07/02 05:18:39;;;;;;;11.30;10.00;;;;;;;19.74;73.34;99221.59;104072;277;38464;-74
2023/07/02 05:21:13;;;;;;;13.30;10.50;;;;;;;19.75;73.06;99227.66;104142;276;38849;-73
2023/07/02 05:23:47;;;;;;;10.40;9.40;;;;;;;19.77;73.15;99223.43;104109;276;39412;-73
2023/07/02 05:26:22;;;;;;;12.10;9.30;;;;;;;19.83;73.03;99223.88;104113;276;38233;-72
2023/07/02 05:28:56;;;;;;;10.50;9.40;;;;;;;19.91;72.73;99224.22;104060;276;38469;-71
2023/07/02 05:31:30;;;;;;;12.60;9.70;;;;;;;20.01;72.93;99228.03;104030;276;38215;-72
2023/07/02 05:34:05;;;;;;;11.90;9.10;;;;;;;20.07;72.48;99230.60;104036;276;39501;-71
2023/07/02 05:36:40;;;;;;;11.20;9.80;;;;;;;20.15;72.34;99230.43;104009;277;39738;-71
2023/07/02 05:39:15;;;;;;;11.40;9.10;;;;;;;20.21;71.80;99229.52;104076;276;39624;-72
2023/07/02 05:41:49;;;;;;;10.80;9.60;;;;;;;20.24;71.52;99228.70;104018;276;39407;-71
2023/07/02 05:44:23;;;;;;;10.00;9.00;;;;;;;20.27;71.05;99227.98;104059;277;38391;-72
2023/07/02 05:47:01;;;;;;;11.20;9.20;;;;;;;20.29;70.62;99230.27;103982;277;38335;-72
2023/07/02 05:49:37;;;;;;;11.40;8.20;;;;;;;20.32;70.60;99232.83;104039;277;38019;-73
2023/07/02 05:52:13;;;;;;;10.30;9.20;;;;;;;20.37;70.59;99238.73;103708;279;38276;-73
2023/07/02 05:54:47;;;;;;;11.60;9.20;;;;;;;20.43;70.32;99233.25;104043;277;39814;-73
2023/07/02 05:57:23;;;;;;;12.80;9.40;;;;;;;20.49;70.13;99233.19;104033;276;38247;-73
2023/07/02 06:00:02;;;;;;;11.30;8.80;;;;;;;20.56;70.06;99235.29;104010;277;39562;-73
2023/07/02 06:02:39;;;;;;;9.80;8.80;;;;;;;20.67;69.52;99233.41;103911;276;38821;-73
2023/07/02 06:05:16;;;;;;;9.70;8.80;;;;;;;20.77;69.75;99234.12;104051;276;38235;-72
2023/07/02 06:07:50;;;;;;;11.40;8.60;;;;;;;20.89;69.82;99236.89;104091;265;38528;-72
2023/07/02 06:10:27;;;;;;;10.00;8.40;;;;;;;20.96;69.29;99236.19;104091;277;38330;-72
2023/07/02 06:13:02;;;;;;;10.10;9.00;;;;;;;20.98;68.60;99237.87;104076;277;38774;-71
2023/07/02 06:15:38;;;;;;;9.00;8.10;;;;;;;21.00;68.03;99240.89;103811;276;174472;-74
2023/07/02 06:18:12;;;;;;;9.80;8.40;;;;;;;21.01;67.94;99243.48;103838;277;38235;-72
2023/07/02 06:20:49;;;;;;;10.10;8.20;;;;;;;21.03;67.71;99245.96;103779;276;39569;-71
2023/07/02 06:23:26;;;;;;;8.80;8.00;;;;;;;21.05;67.80;99249.48;104004;277;38258;-72
2023/07/02 06:26:02;;;;;;;10.60;8.70;;;;;;;21.11;67.76;99248.83;104053;276;38276;-72
2023/07/02 06:28:37;;;;;;;11.90;8.60;;;;;;;21.26;68.40;99252.02;104081;276;38602;-74
2023/07/02 06:31:14;;;;;;;17.90;8.70;;;;;;;21.45;68.91;99251.73;104085;276;39401;-72
2023/07/02 06:33:49;;;;;;;11.10;8.90;;;;;;;21.65;68.55;99246.08;104082;276;38738;-71
2023/07/02 06:36:27;;;;;;;11.20;9.10;;;;;;;21.96;68.67;99243.99;104043;276;38405;-76
2023/07/02 06:39:05;;;;;;;11.20;8.50;;;;;;;22.33;68.22;99245.95;104037;276;39435;-72
2023/07/02 06:41:41;;;;;;;10.40;8.30;;;;;;;22.74;67.01;99246.65;103922;278;38377;-74
2023/07/02 06:44:18;;;;;;;9.80;8.40;;;;;;;23.11;66.04;99246.42;103968;276;174660;-74
2023/07/02 06:46:52;;;;;;;9.60;7.70;;;;;;;23.38;64.29;99244.20;104230;276;38709;-72
2023/07/02 06:49:28;;;;;;;7.90;7.20;;;;;;;23.47;63.10;99246.83;104109;276;38791;-73
2023/07/02 06:52:06;;;;;;;7.90;7.10;;;;;;;23.57;63.10;99247.28;104111;277;38510;-73
2023/07/02 06:54:42;;;;;;;10.10;7.30;;;;;;;23.77;63.17;99243.14;104135;276;38252;-74
2023/07/02 06:57:17;;;;;;;8.50;6.70;;;;;;;23.99;62.55;99243.84;104081;276;39474;-72
2023/07/02 06:59:55;;;;;;;15.00;6.80;;;;;;;24.14;61.82;99250.67;104039;277;39431;-71
2023/07/02 07:02:31;;;;;;;6.80;6.10;;;;;;;24.21;60.76;99256.54;103893;277;38233;-71
2023/07/02 07:05:10;;;;;;;8.00;5.80;;;;;;;24.27;60.61;99258.14;104128;276;38222;-70
2023/07/02 07:07:42;;;;;;;;;;;;;;;24.40;60.01;99264.61;104146;276;38442;-71
2023/07/02 07:10:16;;;;;;;8.80;5.60;;;;;;;24.40;59.15;99270.46;104164;276;38267;-72
2023/07/02 07:12:52;;;;;;;6.90;5.40;;;;;;;24.27;59.25;99269.74;104159;276;38242;-73
2023/07/02 07:15:28;;;;;;;6.60;5.60;;;;;;;24.05;59.80;99272.19;104120;278;38258;-74
2023/07/02 07:18:05;;;;;;;7.60;6.20;;;;;;;23.83;60.55;99275.61;104279;277;39124;-73
2023/07/02 07:20:41;;;;;;;6.90;6.20;;;;;;;23.60;61.44;99279.74;104392;276;38247;-72
2023/07/02 07:23:16;;;;;;;6.70;6.00;;;;;;;23.32;61.82;99281.54;104222;276;38950;-74
2023/07/02 07:25:51;;;;;;;7.40;6.50;;;;;;;23.10;62.78;99282.31;104299;276;38287;-72
2023/07/02 07:28:26;;;;;;;6.70;5.80;;;;;;;22.92;63.53;99281.35;104178;276;38690;-72
2023/07/02 07:31:00;;;;;;;6.70;5.90;;;;;;;22.80;64.20;99278.92;104121;276;38627;-72
2023/07/02 07:33:34;;;;;;;7.10;5.20;;;;;;;22.71;64.92;99275.27;104067;276;38366;-73
2023/07/02 07:36:08;;;;;;;7.10;5.10;;;;;;;22.65;65.41;99279.59;104117;277;38784;-72
2023/07/02 07:38:44;;;;;;;8.90;5.10;;;;;;;22.66;65.61;99283.44;104113;276;38231;-72
2023/07/02 07:41:18;;;;;;;5.20;4.70;;;;;;;22.65;66.43;99289.16;103980;276;171986;-72
2023/07/02 07:43:53;;;;;;;5.00;4.50;;;;;;;22.65;66.58;99292.27;104080;276;38258;-72
2023/07/02 07:46:27;;;;;;;6.30;5.00;;;;;;;22.60;66.10;99292.14;104039;266;38325;-72
2023/07/02 07:49:03;;;;;;;6.10;4.70;;;;;;;22.60;66.54;99292.00;103855;279;38574;-72
2023/07/02 07:51:37;;;;;;;5.50;4.40;;;;;;;22.66;66.85;99293.88;103438;276;894886;-72
2023/07/02 07:54:11;;;;;;;5.70;4.30;;;;;;;22.69;67.19;99289.99;104027;277;38506;-72
2023/07/02 07:56:46;;;;;;;6.10;3.80;;;;;;;22.73;67.31;99293.05;103780;277;39521;-71
2023/07/02 07:59:20;;;;;;;5.00;4.50;;;;;;;22.77;67.24;99294.02;104083;275;39052;-73
2023/07/02 08:01:54;;;;;;;5.90;4.40;;;;;;;22.79;67.46;99290.59;104024;277;39411;-72
2023/07/02 08:04:28;;;;;;;6.00;4.50;;;;;;;22.80;67.21;99288.67;104056;276;38281;-74
2023/07/02 08:07:04;;;;;;;4.20;3.70;;;;;;;22.83;67.18;99283.60;104085;276;38236;-73
2023/07/02 08:09:39;;;;;;;3.70;3.30;;;;;;;22.84;66.73;99283.84;104069;277;38820;-73
2023/07/02 08:12:13;;;;;;;4.10;3.60;;;;;;;22.85;66.98;99292.71;104006;265;38211;-73
2023/07/02 08:14:49;;;;;;;4.50;4.00;;;;;;;23.02;67.21;99293.47;104224;276;39453;-77
2023/07/02 08:17:30;;;;;;;4.60;3.80;;;;;;;23.31;67.12;99297.09;104086;276;38240;-74
2023/07/02 08:20:09;;;;;;;3.90;3.50;;;;;;;23.65;66.66;99298.27;104057;276;38393;-75
2023/07/02 08:22:43;;;;;;;3.60;3.30;;;;;;;23.82;65.50;99299.70;103877;278;39453;-75
2023/07/02 08:25:19;;;;;;;5.00;3.40;;;;;;;23.89;64.28;99303.55;104078;276;38437;-74
2023/07/02 08:27:54;;;;;;;3.60;3.30;;;;;;;23.77;63.53;99296.92;103810;278;39438;-73
2023/07/02 08:30:28;;;;;;;4.90;3.50;;;;;;;23.57;63.25;99304.64;103874;277;38231;-74
2023/07/02 08:33:02;;;;;;;4.40;3.40;;;;;;;23.40;63.51;99306.27;103855;278;39435;-73
2023/07/02 08:35:37;;;;;;;4.60;3.20;;;;;;;23.25;63.90;99312.86;103958;277;38217;-73
2023/07/02 08:38:11;;;;;;;3.90;3.50;;;;;;;23.12;64.29;99312.68;103890;278;38429;-72
2023/07/02 08:40:45;;;;;;;3.80;3.40;;;;;;;23.00;64.64;99312.70;103943;277;38790;-72
2023/07/02 08:43:19;;;;;;;4.30;3.90;;;;;;;22.89;64.62;99315.31;103939;277;38239;-70
2023/07/02 08:45:53;;;;;;;4.30;3.80;;;;;;;22.72;64.46;99315.81;103924;278;39118;-72
2023/07/02 08:48:29;;;;;;;4.90;3.90;;;;;;;22.54;64.71;99319.81;103915;277;38406;-71
2023/07/02 08:51:05;;;;;;;4.30;3.30;;;;;;;22.40;65.13;99321.29;103877;278;38425;-72
2023/07/02 08:53:39;;;;;;;5.70;3.50;;;;;;;22.32;65.65;99319.55;103922;278;38568;-71
2023/07/02 08:56:13;;;;;;;6.00;3.60;;;;;;;22.33;66.16;99318.19;103943;277;38308;-72
2023/07/02 08:58:48;;;;;;;4.00;3.60;;;;;;;22.48;66.95;99319.19;103931;277;39689;-72
2023/07/02 09:01:22;;;;;;;3.90;3.30;;;;;;;22.80;67.72;99321.18;103944;277;38277;-72
2023/07/02 09:04:01;;;;;;;7.00;3.90;;;;;;;23.10;66.82;99316.48;103819;277;38372;-72
2023/07/02 09:06:36;;;;;;;4.00;3.60;;;;;;;23.29;66.47;99316.86;103881;277;38760;-72
2023/07/02 09:09:10;;;;;;;5.80;3.60;;;;;;;23.47;66.25;99311.53;103892;277;39424;-73
2023/07/02 09:11:54;;;;;;;5.00;3.80;;;;;;;23.58;65.57;99316.58;103788;278;38596;-73
2023/07/02 09:14:33;;;;;;;4.70;4.20;;;;;;;23.60;64.37;99316.14;103854;279;38267;-72
2023/07/02 09:17:09;;;;;;;3.90;3.50;;;;;;;23.58;63.97;99317.84;103832;277;39651;-72
2023/07/02 09:19:55;;;;;;;6.40;4.00;;;;;;;23.54;63.80;99319.65;103862;277;38329;-72
2023/07/02 09:22:29;;;;;;;3.80;3.40;;;;;;;23.46;63.53;99322.75;103860;278;40343;-73
2023/07/02 09:25:03;;;;;;;3.60;3.10;;;;;;;23.39;63.49;99326.25;103876;277;38646;-74
2023/07/02 09:27:41;;;;;;;4.10;3.00;;;;;;;23.36;63.16;99325.58;104063;276;39689;-75
2023/07/02 09:30:17;;;;;;;3.50;3.00;;;;;;;23.45;63.81;99332.39;104109;276;39012;-72
2023/07/02 09:32:52;;;;;;;4.40;3.10;;;;;;;23.61;63.90;99330.45;104114;277;38550;-72
2023/07/02 09:35:27;;;;;;;4.00;3.10;;;;;;;23.78;63.65;99335.46;103473;276;893817;-72
2023/07/02 09:38:01;;;;;;;3.90;3.10;;;;;;;23.87;62.70;99333.84;104044;276;38241;-72
2023/07/02 09:40:35;;;;;;;6.20;2.90;;;;;;;24.04;63.23;99328.08;104094;277;38663;-74
2023/07/02 09:43:09;;;;;;;3.60;3.00;;;;;;;24.34;62.53;99327.10;104032;276;39444;-74
2023/07/02 09:45:46;;;;;;;4.30;3.10;;;;;;;24.76;62.58;99326.83;104024;277;38237;-73
2023/07/02 09:48:21;;;;;;;4.10;2.90;;;;;;;25.17;61.54;99321.77;104020;276;39464;-73
2023/07/02 09:50:56;;;;;;;4.00;3.00;;;;;;;25.40;60.46;99320.34;104066;276;38273;-71
2023/07/02 09:53:31;;;;;;;4.60;2.70;;;;;;;25.51;59.86;99327.80;103986;277;38602;-71
2023/07/02 09:56:05;;;;;;;2.80;2.60;;;;;;;25.45;58.65;99330.84;104059;276;38408;-74
2023/07/02 09:58:39;;;;;;;2.80;2.60;;;;;;;25.27;57.70;99325.95;104018;277;38333;-73
2023/07/02 10:01:13;;;;;;;2.90;2.20;;;;;;;25.06;57.81;99321.75;104053;276;40188;-73
2023/07/02 10:03:47;;;;;;;3.40;2.30;;;;;;;24.97;58.24;99316.73;104014;276;38785;-72
2023/07/02 10:06:21;;;;;;;2.50;2.10;;;;;;;25.05;58.96;99318.61;103929;277;38563;-72
2023/07/02 10:08:59;;;;;;;4.00;2.50;;;;;;;25.17;58.54;99314.04;104048;276;39653;-71
2023/07/02 10:11:38;;;;;;;2.20;1.90;;;;;;;25.35;58.19;99307.21;104081;276;38672;-73
2023/07/02 10:14:12;;;;;;;2.90;2.10;;;;;;;25.71;59.50;99304.30;104099;276;39122;-72
2023/07/02 10:16:57;;;;;;;2.80;1.90;;;;;;;26.23;59.05;99306.75;104070;276;38371;-73
2023/07/02 10:19:31;;;;;;;2.80;1.80;;;;;;;26.63;58.03;99307.02;104081;276;38273;-71
2023/07/02 10:22:10;;;;;;;2.60;2.00;;;;;;;26.82;56.27;99302.55;104046;276;39024;-71
2023/07/02 10:24:54;;;;;;;2.30;1.50;;;;;;;26.95;54.68;99298.23;104048;276;38997;-72
2023/07/02 10:27:40;;;;;;;1.90;1.30;;;;;;;27.12;54.08;99298.72;104013;276;38374;-71
2023/07/02 10:30:15;;;;;;;3.80;1.50;;;;;;;27.35;53.24;99296.18;104085;276;38607;-73
2023/07/02 10:32:49;;;;;;;2.40;1.70;;;;;;;27.38;51.81;99297.06;103979;276;38354;-73
2023/07/02 10:35:25;;;;;;;1.90;1.50;;;;;;;27.19;50.97;99294.83;104054;276;38855;-71
2023/07/02 10:37:59;;;;;;;1.70;1.30;;;;;;;26.91;51.23;99295.79;104020;276;39696;-71
2023/07/02 10:40:33;;;;;;;2.40;1.10;;;;;;;26.66;51.08;99299.55;104025;277;38538;-70
2023/07/02 10:43:07;;;;;;;1.40;1.30;;;;;;;26.34;51.21;99301.46;103991;276;38361;-72
2023/07/02 10:45:48;;;;;;;2.30;1.50;;;;;;;25.98;51.46;99304.38;104051;276;39383;-73
2023/07/02 10:48:24;;;;;;;1.60;1.20;;;;;;;25.59;51.89;99315.59;103992;276;39919;-73
2023/07/02 10:50:58;;;;;;;4.20;1.40;;;;;;;25.23;52.78;99311.95;104061;277;38525;-75
2023/07/02 10:53:33;;;;;;;1.90;1.20;;;;;;;24.94;53.61;99315.09;104053;276;38893;-73
2023/07/02 10:56:07;;;;;;;2.00;1.20;;;;;;;24.66;53.82;99323.66;104066;276;39390;-70
2023/07/02 10:58:51;;;;;;;3.60;1.60;;;;;;;24.37;55.39;99332.13;104002;277;39441;-70
2023/07/02 11:01:30;;;;;;;2.60;1.70;;;;;;;24.02;57.75;99337.23;104114;277;39501;-74
2023/07/02 11:04:09;;;;;;;2.90;1.60;;;;;;;23.66;58.99;99337.86;104045;300;38975;-71
2023/07/02 11:06:45;;;;;;;3.20;1.70;;;;;;;23.26;60.68;99338.18;104047;276;38263;-69
2023/07/02 11:09:24;;;;;;;1.60;1.50;;;;;;;22.97;61.69;99341.86;104081;276;38117;-71
2023/07/02 11:11:59;;;;;;;1.90;1.60;;;;;;;22.73;62.84;99343.12;104021;277;38314;-74
2023/07/02 11:14:36;;;;;;;3.20;1.60;;;;;;;22.59;64.40;99348.13;104089;276;39481;-70
2023/07/02 11:17:12;;;;;;;1.70;1.40;;;;;;;22.53;65.26;99351.06;104030;276;38289;-72
2023/07/02 11:19:53;;;;;;;2.90;1.60;;;;;;;22.56;66.16;99348.05;104063;277;38266;-70
2023/07/02 11:22:38;;;;;;;3.00;1.70;;;;;;;22.71;67.51;99347.95;103917;277;39683;-73
2023/07/02 11:25:21;;;;;;;2.00;1.50;;;;;;;22.98;68.90;99337.29;104172;277;38248;-70
2023/07/02 11:28:07;;;;;;;1.90;1.50;;;;;;;23.22;68.65;99337.55;104136;276;39991;-74
2023/07/02 11:30:51;;;;;;;4.40;1.80;;;;;;;23.44;68.09;99339.84;104095;276;39423;-74
2023/07/02 11:33:37;;;;;;;2.00;1.50;;;;;;;23.53;67.46;99342.91;104033;276;39472;-73
2023/07/02 11:36:23;;;;;;;3.20;1.90;;;;;;;23.51;66.70;99345.67;104069;276;38237;-73
2023/07/02 11:39:01;;;;;;;2.10;1.60;;;;;;;23.45;65.73;99348.11;104118;276;39622;-73
2023/07/02 11:41:42;;;;;;;1.80;1.70;;;;;;;23.33;66.22;99347.80;103562;276;714753;-73
2023/07/02 11:44:16;;;;;;;1.90;1.70;;;;;;;23.22;66.42;99347.02;104079;277;38884;-73
2023/07/02 11:46:50;;;;;;;1.70;1.60;;;;;;;23.17;66.63;99344.30;103981;276;38248;-73
2023/07/02 11:49:24;;;;;;;1.90;1.80;;;;;;;23.12;66.44;99342.17;104068;276;38677;-74
2023/07/02 11:51:59;;;;;;;2.30;1.70;;;;;;;23.13;67.19;99339.76;103946;276;39991;-73
2023/07/02 11:54:35;;;;;;;1.70;1.60;;;;;;;23.22;67.21;99339.42;104006;266;39469;-74
2023/07/02 11:57:11;;;;;;;2.40;1.70;;;;;;;23.30;67.24;99343.32;103982;276;38441;-74
2023/07/02 11:59:45;;;;;;;4.00;1.80;;;;;;;23.33;66.76;99341.77;104061;276;38427;-72
2023/07/02 12:02:20;;;;;;;2.30;2.00;;;;;;;23.39;66.50;99341.45;103987;277;38733;-77